METAR Data
IDs: Format: Raw Decoded Include TAF

Data at: 2344 UTC 25 Oct 2021

KRKP 252253Z AUTO 14007KT 10SM CLR 28/24 A2990 RMK AO2 SLP125 T02830244
KRKP 252153Z AUTO 13007KT 10SM CLR 29/24 A2990 RMK AO2 SLP126 T02940244
KRKP 252053Z AUTO VRB06KT 10SM CLR 29/24 A2990 RMK AO2 SLP126 T02940244 56015
KRKP 251953Z AUTO 13006KT 10SM CLR 31/25 A2991 RMK AO2 SLP130 T03060250
KRKP 251853Z AUTO 14007KT 10SM 31/25 A2993 RMK AO2 SLP136 T03060250
KRKP 251753Z AUTO 14007KT 10SM CLR 30/25 A2994 RMK AO2 SLP141 T03000250 10306 20233 58005 $
KRKP 251702Z AUTO 13009KT 10SM SCT019 30/26 A2996 RMK AO2 T03000256 $
KRKP 251653Z AUTO 14008KT 10SM BKN019 30/26 A2996 RMK AO2 SLP146 T03000256
KRKP 251612Z AUTO VRB03KT 10SM FEW010 OVC019 31/25 A2997 RMK AO2 T03060250
KRKP 251600Z AUTO 00000KT 10SM BKN014 OVC019 30/25 A2996 RMK AO2 T03000250
KRKP 251553Z AUTO VRB03KT 10SM SCT010 OVC016 30/25 A2997 RMK AO2 SLP150 T03000250
KRKP 251526Z AUTO 33003KT 10SM OVC015 30/26 A2996 RMK AO2 T03000256
KRKP 251453Z AUTO 00000KT 9SM BKN012 BKN018 28/26 A2996 RMK AO2 SLP146 T02780256 53016
KRKP 251434Z AUTO 27003KT 9SM BKN011 28/26 A2995 RMK AO2 T02780256
KRKP 251353Z AUTO 00000KT 7SM CLR 27/26 A2994 RMK AO2 SLP139 T02670256
KRKP 251333Z AUTO 00000KT 3SM BR CLR 26/26 A2994 RMK AO2 T02610256
KRKP 251306Z AUTO 00000KT 2SM BR FEW010 24/23 A2993 RMK AO2 T02440233
KRKP 251255Z AUTO 00000KT 3SM BR SCT010 24/23 A2992 RMK AO2 T02390233
KRKP 251253Z AUTO 00000KT 2SM BR SCT010 24/23 A2992 RMK AO2 SLP133 T02390233
KRKP 251242Z AUTO 00000KT 1/2SM FG VV011 24/23 A2992 RMK AO2 T02390233
KRKP 251240Z AUTO 00000KT 1SM BR FEW010 SCT017 24/23 A2992 RMK AO2 T02390233
KRKP 251238Z AUTO 00000KT 2SM BR FEW010 SCT017 24/23 A2992 RMK AO2 T02390233
KRKP 251216Z AUTO 00000KT 4SM BR FEW019 24/23 A2991 RMK AO2 T02390233
KRKP 251209Z AUTO 00000KT 2 1/2SM BR FEW019 24/23 A2991 RMK AO2 T02390233
KRKP 251153Z AUTO 00000KT 3SM BR FEW018 24/24 A2991 RMK AO2 SLP129 T02440239 10261 20233 53006
KRKP 251146Z AUTO 00000KT 2SM BR FEW010 FEW016 24/23 A2991 RMK AO2 VIS 1 1/2V3 T02390233
KRKP 251136Z AUTO 00000KT 1 3/4SM BR FEW010 SCT016 24/23 A2990 RMK AO2 VIS 1 1/4V4 T02390233
KRKP 251133Z AUTO 00000KT 2 1/2SM BR SCT010 SCT016 24/23 A2990 RMK AO2 T02390233
KRKP 251127Z AUTO 00000KT 4SM BR SCT010 BKN016 24/23 A2990 RMK AO2 T02390233
KRKP 251125Z AUTO 00000KT 3SM BR BKN009 BKN016 24/23 A2990 RMK AO2 T02390233
KRKP 251123Z AUTO 00000KT 1 1/4SM BR BKN009 BKN016 24/23 A2990 RMK AO2 T02390233
KRKP 251119Z AUTO 00000KT 1/2SM FG BKN009 24/23 A2990 RMK AO2 T02390233
KRKP 251108Z AUTO 00000KT 3/4SM BR BKN010 23/23 A2990 RMK AO2 CIG 008V012 T02330228
KRKP 251106Z AUTO 00000KT 1 1/4SM BR BKN010 23/23 A2990 RMK AO2 VIS 3/4V3 T02330228
KRKP 251103Z AUTO 00000KT 2SM BR SCT010 24/23 A2989 RMK AO2 VIS 1V5 T02390233
KRKP 251053Z AUTO 00000KT 5SM BR FEW010 24/23 A2989 RMK AO2 SLP123 T02390233
KRKP 250953Z AUTO 00000KT 7SM CLR 25/24 A2989 RMK AO2 SLP122 T02500244
KRKP 250853Z AUTO 00000KT 7SM FEW013 26/25 A2989 RMK AO2 SLP123 T02560250 58001
KRKP 250838Z AUTO 17003KT 7SM FEW008 SCT013 25/24 A2990 RMK AO2 T02500244
KRKP 250830Z AUTO 00000KT 7SM FEW008 BKN012 24/24 A2990 RMK AO2 T02440239
KRKP 250753Z AUTO 00000KT 7SM FEW009 25/24 A2990 RMK AO2 SLP125 T02500244
KRKP 250653Z AUTO 17003KT 9SM CLR 26/25 A2989 RMK AO2 SLP123 T02610250
KRKP 250553Z AUTO 16004KT 9SM CLR 26/25 A2989 RMK AO2 SLP124 T02610250 10272 20261 403110239 50013
KRKP 250453Z AUTO 15005KT 10SM CLR 26/25 A2990 RMK AO2 SLP125 T02610250
KRKP 250353Z AUTO 16004KT 10SM CLR 26/25 A2988 RMK AO2 SLP118 T02610250
KRKP 250253Z AUTO 15005KT 10SM CLR 26/25 A2985 RMK AO2 SLP111 T02610250 53018
KRKP 250153Z AUTO 15005KT 10SM CLR 27/24 A2983 RMK AO2 SLP102 T02670244
KRKP 250053Z AUTO 15008KT 10SM CLR 27/25 A2980 RMK AO2 SLP094 T02670250
KRKP 242353Z AUTO 15008KT 10SM CLR 27/24 A2980 RMK AO2 SLP093 T02720244 10311 20272 58003
KRKP 242253Z AUTO 14011KT 10SM CLR 28/24 A2980 RMK AO2 SLP093 T02830244
KRKP 242153Z AUTO 13009KT 10SM CLR 29/25 A2981 RMK AO2 SLP097 T02940250
KRKP 242053Z AUTO 13009KT 10SM CLR 30/25 A2981 RMK AO2 SLP096 T03000250 55013
KRKP 241953Z AUTO 13010KT 10SM SCT019 30/25 A2980 RMK AO2 SLP093 T03000250
KRKP 241853Z AUTO 16008KT 10SM CLR 31/24 A2982 RMK AO2 SLP099 T03110244
KRKP 241753Z AUTO 14009KT 10SM CLR 31/24 A2985 RMK AO2 SLP109 T03060244 10311 20239 58001
KRKP 241653Z AUTO 15008KT 10SM FEW018 FEW039 BKN060 30/24 A2986 RMK AO2 SLP112 T03000244
KRKP 241553Z AUTO 16006KT 10SM SCT017 29/24 A2986 RMK AO2 SLP113 T02890244
KRKP 241453Z AUTO 17005KT 10SM FEW015 SCT022 28/24 A2985 RMK AO2 SLP110 T02830244 53017
KRKP 241353Z AUTO 19003KT 7SM CLR 27/26 A2983 RMK AO2 SLP103 T02720256
KRKP 241253Z AUTO 16003KT 4SM BR CLR 24/24 A2981 RMK AO2 SLP095 T02440239
KRKP 241153Z AUTO 18003KT 6SM BR FEW013 25/24 A2980 RMK AO2 SLP093 70012 T02500239 10256 20244 55001